Time;durP1;ratioP1;P1;durP2;ratioP2;P2;SDS_P1;SDS_P2;PMS_P1;PMS_P2;Temp;Humidity;BMP_temperature;BMP_pressure;BME280_temperature;BME280_humidity;BME280_pressure;Samples;Min_cycle;Max_cycle;Signal;HPM_P1;HPM_P2
2021/05/25 00:01:40;;;;;;;6.57;2.05;;;17.30;98.80;;;;;;4430325;32;20112;-73
2021/05/25 00:04:05;;;;;;;0.32;0.32;;;17.30;98.60;;;;;;4430956;32;20447;-73
2021/05/25 00:06:31;;;;;;;0.30;0.30;;;17.20;98.10;;;;;;4430559;32;20069;-72
2021/05/25 00:08:57;;;;;;;0.20;0.20;;;17.10;98.20;;;;;;4432124;32;20073;-72
2021/05/25 00:11:22;;;;;;;0.22;0.22;;;16.80;98.30;;;;;;4431293;32;20081;-72
2021/05/25 00:13:47;;;;;;;0.20;0.20;;;16.50;98.80;;;;;;4445023;32;20061;-72
2021/05/25 00:16:13;;;;;;;0.70;0.40;;;16.40;99.30;;;;;;4430020;32;20073;-72
2021/05/25 00:18:39;;;;;;;0.30;0.30;;;16.30;99.10;;;;;;4430527;32;20113;-72
2021/05/25 00:21:05;;;;;;;0.20;0.20;;;16.20;99.10;;;;;;4429954;32;20066;-72
2021/05/25 00:23:31;;;;;;;0.20;0.20;;;16.10;99.40;;;;;;4431172;32;20393;-72
2021/05/25 00:25:56;;;;;;;3.97;0.82;;;16.20;99.20;;;;;;4430605;32;20064;-72
2021/05/25 00:28:23;;;;;;;0.20;0.20;;;16.20;99.40;;;;;;4430511;32;20078;-72
2021/05/25 00:30:49;;;;;;;3.03;1.42;;;16.10;99.50;;;;;;4430270;32;20069;-72
2021/05/25 00:33:15;;;;;;;0.20;0.20;;;16.00;99.80;;;;;;4430284;32;20164;-72
2021/05/25 00:35:41;;;;;;;0.10;0.10;;;16.00;99.90;;;;;;4430752;32;20068;-72
2021/05/25 00:38:07;;;;;;;0.30;0.30;;;15.90;99.90;;;;;;4430880;32;20510;-72
2021/05/25 00:40:32;;;;;;;0.30;0.30;;;15.80;99.90;;;;;;4430874;32;20091;-72
2021/05/25 00:42:58;;;;;;;0.28;0.28;;;15.70;99.90;;;;;;4430303;32;20467;-72
2021/05/25 00:45:23;;;;;;;0.30;0.30;;;15.70;99.90;;;;;;4439821;32;20074;-72
2021/05/25 00:47:49;;;;;;;0.20;0.20;;;15.50;99.90;;;;;;4445419;32;20065;-72
2021/05/25 00:50:20;;;;;;;0.20;0.20;;;15.40;99.90;;;;;;4445395;32;20065;-72
2021/05/25 00:52:48;;;;;;;0.37;0.37;;;15.20;99.90;;;;;;4445488;32;20061;-72
2021/05/25 00:55:18;;;;;;;0.47;0.32;;;15.10;99.90;;;;;;4446089;32;20077;-72
2021/05/25 00:57:44;;;;;;;0.77;0.57;;;15.00;99.90;;;;;;4445274;32;20493;-72
2021/05/25 01:00:11;;;;;;;0.20;0.20;;;15.00;99.90;;;;;;4445883;32;20061;-73
2021/05/25 01:02:37;;;;;;;0.20;0.20;;;14.90;99.90;;;;;;4443435;32;20068;-72
2021/05/25 01:05:03;;;;;;;0.20;0.20;;;14.80;99.90;;;;;;4445151;32;20074;-72
2021/05/25 01:07:29;;;;;;;0.20;0.20;;;14.70;99.90;;;;;;4445540;32;20074;-72
2021/05/25 01:09:56;;;;;;;1.02;0.68;;;14.60;99.90;;;;;;4445371;32;20084;-72
2021/05/25 01:12:25;;;;;;;0.22;0.22;;;14.60;99.90;;;;;;4439877;32;20433;-72
2021/05/25 01:14:55;;;;;;;0.20;0.20;;;14.50;99.90;;;;;;4437854;32;20077;-72
2021/05/25 01:17:21;;;;;;;0.30;0.30;;;14.60;99.90;;;;;;4443789;32;20073;-72
2021/05/25 01:19:46;;;;;;;0.35;0.35;;;14.40;99.90;;;;;;4445180;32;20057;-72
2021/05/25 01:22:12;;;;;;;0.28;0.28;;;14.30;99.90;;;;;;4444865;32;20616;-72
2021/05/25 01:24:37;;;;;;;0.30;0.30;;;14.20;99.90;;;;;;4447220;32;20077;-72
2021/05/25 01:27:05;;;;;;;0.30;0.30;;;14.30;99.90;;;;;;4444857;32;20111;-72
2021/05/25 01:29:32;;;;;;;0.20;0.20;;;14.30;99.90;;;;;;4445651;32;20130;-72
2021/05/25 01:31:57;;;;;;;10.65;0.70;;;14.40;99.90;;;;;;4444768;32;20163;-72
2021/05/25 01:34:23;;;;;;;0.30;0.30;;;14.30;99.90;;;;;;4445174;32;20073;-72
2021/05/25 01:36:49;;;;;;;0.30;0.30;;;14.40;99.90;;;;;;4445159;32;20498;-72
2021/05/25 01:39:15;;;;;;;8.07;0.82;;;14.60;99.90;;;;;;4444765;32;20073;-72
2021/05/25 01:41:40;;;;;;;1.77;0.55;;;14.60;99.90;;;;;;4445041;32;20099;-72
2021/05/25 01:44:06;;;;;;;0.30;0.30;;;14.60;99.90;;;;;;4434798;32;20113;-72
2021/05/25 01:46:31;;;;;;;0.43;0.43;;;14.50;99.90;;;;;;4444012;32;20069;-72
2021/05/25 01:48:57;;;;;;;0.20;0.20;;;14.30;99.90;;;;;;4445211;32;20064;-72
2021/05/25 01:51:23;;;;;;;0.22;0.22;;;14.20;99.90;;;;;;4444258;32;20521;-72
2021/05/25 01:53:48;;;;;;;0.90;0.47;;;14.20;99.90;;;;;;4444756;32;20065;-72
2021/05/25 01:56:16;;;;;;;0.10;0.10;;;14.10;99.90;;;;;;4445144;32;20061;-72
2021/05/25 01:58:41;;;;;;;0.20;0.20;;;14.10;99.90;;;;;;4445551;32;20096;-72
2021/05/25 02:01:09;;;;;;;0.30;0.30;;;14.00;99.90;;;;;;4444298;32;20497;-72
2021/05/25 02:03:36;;;;;;;0.20;0.20;;;14.00;99.90;;;;;;4444757;32;20061;-72
2021/05/25 02:06:03;;;;;;;20.08;0.62;;;13.90;99.90;;;;;;4444461;32;20076;-72
2021/05/25 02:08:29;;;;;;;0.43;0.40;;;13.90;99.90;;;;;;4444293;32;20428;-72
2021/05/25 02:10:57;;;;;;;0.20;0.20;;;14.00;99.90;;;;;;4444466;32;20061;-72
2021/05/25 02:13:26;;;;;;;0.45;0.45;;;13.90;99.90;;;;;;4432041;32;20127;-72
2021/05/25 02:15:57;;;;;;;0.20;0.20;;;13.90;99.90;;;;;;4445261;32;20506;-72
2021/05/25 02:18:23;;;;;;;;;;;13.90;99.90;;;;;;4444310;32;20078;-72
2021/05/25 02:20:51;;;;;;;0.60;0.37;;;14.00;99.90;;;;;;4444860;32;20299;-72
2021/05/25 02:23:17;;;;;;;0.60;0.30;;;14.00;99.90;;;;;;4445106;32;20089;-72
2021/05/25 02:25:43;;;;;;;0.20;0.20;;;14.00;99.90;;;;;;4444996;32;20364;-72
2021/05/25 02:28:10;;;;;;;0.20;0.20;;;14.10;99.90;;;;;;4445323;32;20115;-72
2021/05/25 02:30:37;;;;;;;0.30;0.30;;;14.10;99.90;;;;;;4444369;32;20104;-72
2021/05/25 02:33:06;;;;;;;0.25;0.25;;;14.00;99.90;;;;;;4445535;32;20089;-72
2021/05/25 02:35:33;;;;;;;0.25;0.25;;;13.90;99.90;;;;;;4443884;32;20535;-72
2021/05/25 02:37:58;;;;;;;0.30;0.30;;;13.70;99.90;;;;;;4444069;32;20125;-72
2021/05/25 02:40:25;;;;;;;0.20;0.20;;;13.70;99.90;;;;;;4445463;32;20112;-72
2021/05/25 02:42:51;;;;;;;0.25;0.25;;;13.80;99.90;;;;;;4443439;32;20057;-72
2021/05/25 02:45:17;;;;;;;0.20;0.20;;;13.80;99.90;;;;;;4432905;32;20058;-72
2021/05/25 02:47:43;;;;;;;1.27;0.30;;;13.90;99.90;;;;;;4443848;32;20112;-72
2021/05/25 02:50:09;;;;;;;0.75;0.43;;;13.80;99.90;;;;;;4444020;32;20514;-72
2021/05/25 02:52:38;;;;;;;2.92;0.77;;;13.90;99.90;;;;;;4445124;32;20097;-72
2021/05/25 02:55:05;;;;;;;0.30;0.30;;;13.90;99.90;;;;;;4445472;32;20120;-72
2021/05/25 02:57:31;;;;;;;0.30;0.30;;;14.00;99.90;;;;;;4443564;32;20064;-72
2021/05/25 02:59:56;;;;;;;0.20;0.20;;;13.90;99.90;;;;;;4444581;32;20156;-72
2021/05/25 03:02:22;;;;;;;0.20;0.20;;;14.00;99.90;;;;;;4443728;32;20116;-72
2021/05/25 03:04:47;;;;;;;0.30;0.30;;;13.80;99.90;;;;;;4443672;32;20057;-72
2021/05/25 03:07:13;;;;;;;1.27;0.40;;;13.90;99.90;;;;;;4444520;32;20077;-72
2021/05/25 03:09:38;;;;;;;4.47;1.98;;;13.90;99.90;;;;;;4443939;32;20073;-72
2021/05/25 03:12:04;;;;;;;0.25;0.25;;;13.80;99.90;;;;;;4439947;32;20065;-72
2021/05/25 03:14:31;;;;;;;0.28;0.28;;;13.80;99.90;;;;;;4438995;32;20065;-72
2021/05/25 03:16:56;;;;;;;0.20;0.20;;;14.00;99.90;;;;;;4443112;32;20152;-72
2021/05/25 03:19:22;;;;;;;0.30;0.30;;;13.80;99.90;;;;;;4443873;32;20080;-72
2021/05/25 03:21:47;;;;;;;0.20;0.20;;;13.70;99.90;;;;;;4443924;32;20127;-72
2021/05/25 03:24:13;;;;;;;4.30;0.85;;;13.60;99.90;;;;;;4444083;32;20453;-72
2021/05/25 03:26:38;;;;;;;0.30;0.30;;;13.50;99.90;;;;;;4444472;32;20498;-72
2021/05/25 03:29:04;;;;;;;0.20;0.20;;;13.60;99.90;;;;;;4444499;32;20416;-72
2021/05/25 03:31:29;;;;;;;0.30;0.30;;;13.60;99.90;;;;;;4443315;32;20077;-72
2021/05/25 03:33:55;;;;;;;0.25;0.25;;;13.70;99.90;;;;;;4444203;32;20081;-72
2021/05/25 03:36:20;;;;;;;6.12;1.10;;;13.80;99.90;;;;;;4443661;32;20124;-72
2021/05/25 03:38:46;;;;;;;0.43;0.43;;;13.90;99.90;;;;;;4443709;32;20409;-72
2021/05/25 03:41:11;;;;;;;0.30;0.30;;;13.80;99.90;;;;;;4444259;32;20076;-72
2021/05/25 03:43:37;;;;;;;7.78;0.60;;;13.80;99.90;;;;;;4440768;32;20444;-72
2021/05/25 03:46:02;;;;;;;0.30;0.30;;;13.80;99.90;;;;;;4428940;32;20392;-72
2021/05/25 03:48:28;;;;;;;0.30;0.30;;;13.80;99.90;;;;;;4428160;32;20122;-72
2021/05/25 03:50:53;;;;;;;0.37;0.37;;;13.80;99.90;;;;;;4428235;32;20065;-72
2021/05/25 03:53:19;;;;;;;1.48;0.45;;;13.90;99.90;;;;;;4428591;32;20065;-72
2021/05/25 03:55:51;;;;;;;0.30;0.30;;;13.90;99.90;;;;;;4429397;32;20065;-72
2021/05/25 04:01:03;;;;;;;0.40;0.40;;;13.90;99.90;;;;;;4429479;32;20121;-72
2021/05/25 04:03:29;;;;;;;0.20;0.20;;;13.90;99.90;;;;;;4432195;32;20066;-72
2021/05/25 04:05:54;;;;;;;6.60;0.50;;;13.90;99.90;;;;;;4430311;32;20144;-72
2021/05/25 04:08:20;;;;;;;0.40;0.40;;;13.90;99.90;;;;;;4431200;32;20068;-72
2021/05/25 04:10:46;;;;;;;0.43;0.40;;;13.90;99.90;;;;;;4430646;32;20519;-72
2021/05/25 04:13:13;;;;;;;0.20;0.20;;;13.70;99.90;;;;;;4438752;32;20065;-72
2021/05/25 04:15:43;;;;;;;0.32;0.32;;;13.80;99.90;;;;;;4430223;32;20082;-72
2021/05/25 04:18:08;;;;;;;0.30;0.30;;;13.60;99.90;;;;;;4431471;32;20511;-72
2021/05/25 04:20:34;;;;;;;0.37;0.37;;;13.70;99.90;;;;;;4429826;32;20057;-72
2021/05/25 04:22:59;;;;;;;0.20;0.20;;;13.90;99.90;;;;;;4433736;32;20068;-72
2021/05/25 04:25:25;;;;;;;0.17;0.17;;;13.80;99.90;;;;;;4428571;32;20076;-72
2021/05/25 04:27:51;;;;;;;0.22;0.22;;;13.80;99.90;;;;;;4427688;32;20061;-72
2021/05/25 04:30:17;;;;;;;0.30;0.30;;;13.70;99.90;;;;;;4429168;32;20066;-72
2021/05/25 04:32:42;;;;;;;0.88;0.68;;;13.70;99.90;;;;;;4429228;32;20074;-72
2021/05/25 04:35:08;;;;;;;0.30;0.30;;;13.70;99.90;;;;;;4428959;32;20061;-72
2021/05/25 04:37:34;;;;;;;1.83;0.68;;;13.90;99.90;;;;;;4429676;32;20053;-72
2021/05/25 04:40:00;;;;;;;0.50;0.50;;;13.90;99.90;;;;;;4429255;32;20119;-72
2021/05/25 04:42:25;;;;;;;0.37;0.37;;;13.90;99.90;;;;;;4430230;32;20064;-72
2021/05/25 04:44:51;;;;;;;0.30;0.30;;;13.90;99.90;;;;;;4439752;32;20517;-72
2021/05/25 04:47:16;;;;;;;0.30;0.30;;;13.90;99.90;;;;;;4429099;32;20057;-72
2021/05/25 04:49:42;;;;;;;0.32;0.32;;;13.90;99.90;;;;;;4428656;32;20121;-72
2021/05/25 04:52:08;;;;;;;0.50;0.50;;;13.80;99.90;;;;;;4429463;32;20069;-72
2021/05/25 04:54:35;;;;;;;0.40;0.40;;;13.90;99.90;;;;;;4429657;32;20065;-72
2021/05/25 04:57:00;;;;;;;0.30;0.30;;;14.00;99.90;;;;;;4430178;32;20106;-73
2021/05/25 04:59:26;;;;;;;0.60;0.50;;;14.10;99.90;;;;;;4428642;32;20089;-72
2021/05/25 05:01:51;;;;;;;0.20;0.20;;;14.10;99.90;;;;;;4431694;32;20168;-72
2021/05/25 05:04:17;;;;;;;0.37;0.37;;;14.10;99.90;;;;;;4434091;32;20065;-72
2021/05/25 05:06:43;;;;;;;0.50;0.50;;;14.10;99.90;;;;;;4438638;32;20069;-72
2021/05/25 05:09:08;;;;;;;0.40;0.40;;;14.20;99.90;;;;;;4432424;32;20462;-72
2021/05/25 05:11:34;;;;;;;0.60;0.60;;;14.10;99.90;;;;;;4428008;32;20069;-72
2021/05/25 05:14:00;;;;;;;0.40;0.40;;;14.10;99.90;;;;;;4430680;32;20073;-72
2021/05/25 05:16:25;;;;;;;0.30;0.30;;;14.00;99.90;;;;;;4432864;32;20085;-73
2021/05/25 05:18:51;;;;;;;0.40;0.40;;;14.10;99.90;;;;;;4419837;32;20559;-72
2021/05/25 05:21:16;;;;;;;1.85;0.57;;;14.00;99.90;;;;;;4432461;32;20392;-72
2021/05/25 05:23:42;;;;;;;1.45;1.15;;;13.90;99.90;;;;;;4432591;32;20430;-72
2021/05/25 05:26:08;;;;;;;0.30;0.30;;;14.00;99.90;;;;;;4424903;32;20520;-71
2021/05/25 05:28:34;;;;;;;0.40;0.40;;;13.90;99.90;;;;;;4426299;32;20109;-73
2021/05/25 05:31:00;;;;;;;0.20;0.20;;;13.90;99.90;;;;;;4416608;32;20081;-73
2021/05/25 05:33:25;;;;;;;0.50;0.50;;;13.80;99.90;;;;;;4423705;32;20070;-73
2021/05/25 05:35:51;;;;;;;0.20;0.20;;;13.80;99.90;;;;;;4428535;32;20413;-73
2021/05/25 05:38:16;;;;;;;4.57;0.52;;;13.90;99.90;;;;;;4427295;32;20093;-73
2021/05/25 05:40:42;;;;;;;0.30;0.30;;;13.90;99.90;;;;;;4429022;32;20535;-73
2021/05/25 05:43:07;;;;;;;0.43;0.43;;;13.70;99.90;;;;;;4433274;32;20093;-73
2021/05/25 05:45:34;;;;;;;0.20;0.20;;;13.80;99.90;;;;;;4431642;32;20537;-73
2021/05/25 05:48:00;;;;;;;0.32;0.32;;;13.80;99.90;;;;;;4431958;32;20125;-74
2021/05/25 05:50:25;;;;;;;0.20;0.20;;;13.80;99.90;;;;;;4432292;32;20069;-73
2021/05/25 05:52:51;;;;;;;0.22;0.22;;;13.90;99.90;;;;;;4431682;32;20400;-73
2021/05/25 05:55:18;;;;;;;0.20;0.20;;;13.90;99.90;;;;;;4430926;32;20077;-73
2021/05/25 05:57:46;;;;;;;0.22;0.22;;;13.80;99.90;;;;;;4430953;32;20074;-73
2021/05/25 06:00:13;;;;;;;0.20;0.20;;;13.80;99.90;;;;;;4429807;32;20589;-73
2021/05/25 06:02:38;;;;;;;0.30;0.30;;;13.70;99.90;;;;;;4429840;32;20061;-73
2021/05/25 06:05:04;;;;;;;1.35;0.85;;;13.70;99.90;;;;;;4431409;32;20128;-73
2021/05/25 06:07:30;;;;;;;0.20;0.20;;;13.60;99.90;;;;;;4429303;32;20081;-73
2021/05/25 06:09:57;;;;;;;0.30;0.30;;;13.60;99.90;;;;;;4429778;32;20151;-73
2021/05/25 06:12:23;;;;;;;1.08;0.35;;;13.70;99.90;;;;;;4431423;32;20081;-73
2021/05/25 06:14:48;;;;;;;0.30;0.30;;;13.70;99.90;;;;;;4436517;32;20058;-74
2021/05/25 06:17:14;;;;;;;0.20;0.20;;;13.80;99.90;;;;;;4428426;32;20081;-74
2021/05/25 06:19:39;;;;;;;1.75;0.40;;;13.70;99.90;;;;;;4434847;32;20736;-74
2021/05/25 06:22:05;;;;;;;0.20;0.20;;;13.60;99.90;;;;;;4428343;32;20065;-74
2021/05/25 06:24:30;;;;;;;0.45;0.45;;;13.70;99.90;;;;;;4431608;32;20534;-74
2021/05/25 06:26:56;;;;;;;0.28;0.28;;;13.80;99.90;;;;;;4430112;32;20081;-73
2021/05/25 06:29:21;;;;;;;0.30;0.30;;;13.70;99.90;;;;;;4432149;32;20088;-74
2021/05/25 06:31:47;;;;;;;0.30;0.30;;;13.80;99.90;;;;;;4434738;32;20065;-74
2021/05/25 06:34:12;;;;;;;2.12;0.52;;;13.70;99.90;;;;;;4429405;32;20057;-73
2021/05/25 06:36:38;;;;;;;0.20;0.20;;;13.70;99.90;;;;;;4431762;32;20066;-74
2021/05/25 06:39:04;;;;;;;0.55;0.55;;;13.70;99.90;;;;;;4436719;32;20522;-74
2021/05/25 06:41:30;;;;;;;1.17;0.43;;;13.70;99.90;;;;;;4431261;32;20065;-74
2021/05/25 06:43:56;;;;;;;0.25;0.25;;;13.80;99.90;;;;;;4431795;32;20121;-74
2021/05/25 06:46:21;;;;;;;0.30;0.30;;;13.70;99.90;;;;;;4433533;32;20415;-74
2021/05/25 06:48:47;;;;;;;0.20;0.20;;;13.70;99.90;;;;;;4428153;32;20498;-73
2021/05/25 06:51:12;;;;;;;0.20;0.20;;;13.60;99.90;;;;;;4435615;32;20069;-75
2021/05/25 06:53:38;;;;;;;0.28;0.28;;;13.60;99.90;;;;;;4432158;32;20101;-73
2021/05/25 06:56:04;;;;;;;0.20;0.20;;;13.60;99.90;;;;;;4434674;32;20077;-74
2021/05/25 06:58:30;;;;;;;0.75;0.75;;;13.60;99.90;;;;;;4435563;32;20419;-77
2021/05/25 07:00:55;;;;;;;0.20;0.20;;;13.70;99.90;;;;;;4436467;32;20073;-73
2021/05/25 07:03:21;;;;;;;0.20;0.20;;;13.60;99.90;;;;;;4431349;32;20077;-73
2021/05/25 07:05:47;;;;;;;0.20;0.20;;;13.60;99.90;;;;;;4434273;32;20069;-73
2021/05/25 07:08:12;;;;;;;0.20;0.20;;;13.60;99.90;;;;;;4428750;32;20077;-73
2021/05/25 07:10:38;;;;;;;0.25;0.25;;;13.60;99.90;;;;;;4429902;32;20065;-74
2021/05/25 07:13:03;;;;;;;0.20;0.20;;;13.60;99.90;;;;;;4436901;32;20511;-74
2021/05/25 07:15:29;;;;;;;0.30;0.30;;;13.50;99.90;;;;;;4436323;32;20140;-72
2021/05/25 07:17:56;;;;;;;0.30;0.30;;;13.40;99.90;;;;;;4428733;32;20074;-72
2021/05/25 07:20:23;;;;;;;0.30;0.30;;;13.40;99.90;;;;;;4432069;32;20203;-72
2021/05/25 07:22:52;;;;;;;0.30;0.30;;;13.50;99.90;;;;;;4433040;32;20073;-72
2021/05/25 07:25:19;;;;;;;0.30;0.30;;;13.70;99.90;;;;;;4427088;32;20069;-72
2021/05/25 07:27:44;;;;;;;7.32;2.58;;;13.80;99.90;;;;;;4425174;32;20172;-73
2021/05/25 07:30:10;;;;;;;0.30;0.30;;;13.90;99.90;;;;;;4434074;32;20510;-72
2021/05/25 07:32:37;;;;;;;1.17;0.55;;;13.80;99.90;;;;;;4433182;32;20069;-72
2021/05/25 07:35:03;;;;;;;0.10;0.10;;;13.70;99.90;;;;;;4432475;32;20456;-72
2021/05/25 07:37:28;;;;;;;0.20;0.20;;;13.80;99.90;;;;;;4436934;32;20068;-72
2021/05/25 07:39:54;;;;;;;0.20;0.20;;;13.80;99.90;;;;;;4440909;32;20509;-73
2021/05/25 07:42:19;;;;;;;0.30;0.30;;;13.80;99.90;;;;;;4436388;32;20074;-72
2021/05/25 07:44:45;;;;;;;0.37;0.37;;;13.80;99.90;;;;;;4429057;32;20085;-73
2021/05/25 07:47:10;;;;;;;1.37;0.77;;;13.70;99.90;;;;;;4433337;32;20401;-73
2021/05/25 07:49:36;;;;;;;0.20;0.20;;;13.70;99.90;;;;;;4430576;32;20093;-73
2021/05/25 07:52:02;;;;;;;0.30;0.30;;;13.70;99.90;;;;;;4427987;32;20069;-73
2021/05/25 07:54:28;;;;;;;0.30;0.30;;;13.80;99.90;;;;;;4431379;32;20079;-72
2021/05/25 07:56:54;;;;;;;0.30;0.30;;;13.90;99.90;;;;;;4432792;32;20068;-73
2021/05/25 07:59:19;;;;;;;1.95;0.70;;;13.70;99.90;;;;;;4435850;32;20065;-74
2021/05/25 08:01:45;;;;;;;0.20;0.20;;;13.80;99.90;;;;;;4436234;32;20057;-73
2021/05/25 08:04:10;;;;;;;0.20;0.20;;;13.70;99.90;;;;;;4435295;32;20085;-73
2021/05/25 08:06:36;;;;;;;0.22;0.22;;;13.70;99.90;;;;;;4436035;32;20085;-72
2021/05/25 08:09:04;;;;;;;0.30;0.30;;;13.80;99.90;;;;;;4430682;32;20399;-73
2021/05/25 08:11:29;;;;;;;0.25;0.25;;;13.80;99.90;;;;;;4436785;32;20086;-72
2021/05/25 08:13:55;;;;;;;0.20;0.20;;;13.80;99.90;;;;;;4428661;32;20420;-72
2021/05/25 08:16:25;;;;;;;1.12;0.60;;;13.70;99.90;;;;;;4427696;32;20525;-73
2021/05/25 08:19:50;;;;;;;0.25;0.25;;;13.70;99.90;;;;;;4420104;32;20171;-73
2021/05/25 08:21:38;;;;;;;0.30;0.30;;;13.70;99.90;;;;;;4414852;32;20124;-73
2021/05/25 08:24:05;;;;;;;0.20;0.20;;;13.80;99.90;;;;;;4421244;32;20065;-72
2021/05/25 08:26:31;;;;;;;0.28;0.28;;;13.80;99.90;;;;;;4418445;32;20094;-74
2021/05/25 08:28:56;;;;;;;0.28;0.28;;;13.70;99.90;;;;;;4421596;32;20081;-73
2021/05/25 08:31:22;;;;;;;39.97;0.57;;;13.80;99.90;;;;;;4423952;32;20097;-72
2021/05/25 08:33:49;;;;;;;0.28;0.28;;;13.80;99.90;;;;;;4417126;32;20081;-73
2021/05/25 08:36:17;;;;;;;0.20;0.20;;;13.80;99.90;;;;;;4421764;32;20790;-73
2021/05/25 08:38:42;;;;;;;0.20;0.20;;;13.80;99.90;;;;;;4421991;32;20098;-73
2021/05/25 08:41:08;;;;;;;0.20;0.20;;;13.90;99.90;;;;;;4419022;32;20081;-72
2021/05/25 08:43:33;;;;;;;0.17;0.17;;;13.90;99.90;;;;;;4421360;32;20092;-73
2021/05/25 08:45:59;;;;;;;0.20;0.20;;;13.90;99.90;;;;;;4423148;32;20057;-73
2021/05/25 08:48:24;;;;;;;0.30;0.30;;;14.10;99.90;;;;;;4416447;32;20081;-73
2021/05/25 08:50:53;;;;;;;0.43;0.43;;;14.30;99.90;;;;;;4421266;32;20127;-72
2021/05/25 08:53:19;;;;;;;0.30;0.30;;;14.20;99.90;;;;;;4421892;32;20127;-73
2021/05/25 08:55:48;;;;;;;0.22;0.22;;;14.20;99.90;;;;;;4419783;32;20094;-71
2021/05/25 08:58:13;;;;;;;0.40;0.40;;;14.20;99.90;;;;;;4421505;32;20081;-71
2021/05/25 09:00:39;;;;;;;0.30;0.30;;;14.20;99.90;;;;;;4423712;32;20080;-70
2021/05/25 09:03:04;;;;;;;0.28;0.28;;;14.20;99.90;;;;;;4433020;32;20058;-69
2021/05/25 09:05:32;;;;;;;0.20;0.20;;;14.20;99.90;;;;;;4432920;32;20101;-69
2021/05/25 09:07:59;;;;;;;0.20;0.20;;;14.40;99.90;;;;;;4430533;32;20056;-69
2021/05/25 09:10:37;;;;;;;5.75;0.98;;;14.50;99.90;;;;;;4430684;32;20065;-69
2021/05/25 09:13:11;;;;;;;0.20;0.20;;;14.70;99.90;;;;;;4432060;32;20183;-70
2021/05/25 09:15:42;;;;;;;0.20;0.20;;;15.00;99.90;;;;;;4432516;32;20424;-70
2021/05/25 09:18:08;;;;;;;;;;;15.30;99.90;;;;;;4431424;32;20129;-72
2021/05/25 09:20:55;;;;;;;0.20;0.20;;;15.30;99.90;;;;;;4433174;32;19945;-70
2021/05/25 09:23:43;;;;;;;0.25;0.25;;;15.40;99.90;;;;;;4431882;32;20049;-70
2021/05/25 09:26:14;;;;;;;0.30;0.30;;;15.50;99.90;;;;;;4419631;32;20106;-70
2021/05/25 09:29:03;;;;;;;0.30;0.30;;;15.30;99.90;;;;;;4435921;32;20439;-70
2021/05/25 09:31:40;;;;;;;0.32;0.32;;;15.30;99.90;;;;;;4419709;32;20534;-69
2021/05/25 09:34:16;;;;;;;0.30;0.30;;;15.80;99.90;;;;;;4431749;32;20076;-69
2021/05/25 09:37:04;;;;;;;0.20;0.20;;;16.10;99.90;;;;;;4432303;32;20077;-69
2021/05/25 09:39:49;;;;;;;0.20;0.20;;;16.40;99.90;;;;;;4426191;32;77019;-69
2021/05/25 09:42:17;;;;;;;0.50;0.40;;;16.30;99.90;;;;;;4430621;32;20489;-69
2021/05/25 09:44:59;;;;;;;0.30;0.30;;;16.30;99.90;;;;;;4430218;32;20108;-70
2021/05/25 09:47:43;;;;;;;0.10;0.10;;;16.40;99.90;;;;;;4431058;32;20142;-69
2021/05/25 09:50:13;;;;;;;0.30;0.30;;;16.40;99.90;;;;;;4436105;32;20078;-69
2021/05/25 09:53:00;;;;;;;0.40;0.40;;;16.60;99.90;;;;;;4433024;32;20648;-70
2021/05/25 09:55:26;;;;;;;0.20;0.20;;;16.70;99.90;;;;;;4417366;32;20081;-70
2021/05/25 09:57:54;;;;;;;0.20;0.20;;;16.60;99.90;;;;;;4429470;32;20152;-71
2021/05/25 10:00:30;;;;;;;0.30;0.30;;;16.50;99.90;;;;;;4435816;32;20085;-72
2021/05/25 10:03:14;;;;;;;0.62;0.60;;;16.30;99.90;;;;;;4432671;32;20104;-72
2021/05/25 10:05:44;;;;;;;0.20;0.20;;;16.00;99.90;;;;;;4431056;32;20135;-71
2021/05/25 10:08:10;;;;;;;0.90;0.77;;;16.00;99.90;;;;;;4431436;32;20620;-71
2021/05/25 10:10:36;;;;;;;0.20;0.20;;;16.00;99.90;;;;;;4430042;32;20366;-72
2021/05/25 10:13:02;;;;;;;0.30;0.30;;;16.00;99.90;;;;;;4434816;32;20380;-71
2021/05/25 10:15:28;;;;;;;0.20;0.20;;;16.00;99.90;;;;;;4426658;32;20420;-71
2021/05/25 10:20:21;;;;;;;0.40;0.40;;;16.60;99.90;;;;;;4427847;32;20101;-71
2021/05/25 10:22:47;;;;;;;0.10;0.10;;;16.90;99.90;;;;;;4430125;32;20125;-71
2021/05/25 10:25:15;;;;;;;0.93;0.73;;;17.20;98.00;;;;;;4435215;32;20081;-73
2021/05/25 10:27:42;;;;;;;0.20;0.20;;;17.20;97.70;;;;;;4431142;32;20068;-72
2021/05/25 10:30:26;;;;;;;0.20;0.20;;;17.30;98.00;;;;;;4432823;32;20096;-71
2021/05/25 10:33:10;;;;;;;0.25;0.25;;;17.10;98.60;;;;;;4429272;32;20112;-71
2021/05/25 10:35:50;;;;;;;0.20;0.20;;;16.80;98.60;;;;;;4428248;32;20062;-71
2021/05/25 10:38:17;;;;;;;0.20;0.20;;;16.60;99.10;;;;;;4429791;32;20131;-71
2021/05/25 10:40:48;;;;;;;0.28;0.28;;;16.30;99.90;;;;;;4428249;32;20065;-71
2021/05/25 10:43:33;;;;;;;;;;;15.40;99.90;;;;;;4433650;32;20143;-71
2021/05/25 10:46:16;;;;;;;0.20;0.20;;;15.00;99.90;;;;;;4421126;32;20731;-71
2021/05/25 10:48:57;;;;;;;0.10;0.10;;;14.60;99.90;;;;;;4432766;32;20061;-71
2021/05/25 10:51:45;;;;;;;0.20;0.20;;;14.50;99.90;;;;;;4429563;32;20159;-72
2021/05/25 10:54:29;;;;;;;0.20;0.20;;;14.50;99.90;;;;;;4422170;32;20132;-71
2021/05/25 10:56:56;;;;;;;0.40;0.40;;;14.40;99.90;;;;;;4432671;32;20085;-71
2021/05/25 10:59:22;;;;;;;0.30;0.30;;;14.50;99.90;;;;;;4436798;32;20128;-71
2021/05/25 11:01:56;;;;;;;0.55;0.55;;;14.70;99.90;;;;;;4427700;32;20077;-71
2021/05/25 11:04:24;;;;;;;0.20;0.20;;;14.80;99.90;;;;;;4430013;32;20072;-71
2021/05/25 11:06:50;;;;;;;0.43;0.43;;;14.80;99.90;;;;;;4435115;32;20081;-71
2021/05/25 11:09:27;;;;;;;0.20;0.20;;;14.60;99.90;;;;;;4440118;32;20471;-71
2021/05/25 11:12:13;;;;;;;0.20;0.20;;;14.80;99.90;;;;;;4431772;32;20162;-72
2021/05/25 11:15:15;;;;;;;0.90;0.50;;;15.20;99.90;;;;;;4419764;32;20138;-71
2021/05/25 11:17:44;;;;;;;0.40;0.40;;;15.40;99.90;;;;;;4425522;32;20076;-71
2021/05/25 11:20:38;;;;;;;0.20;0.20;;;15.10;99.90;;;;;;4439674;32;20564;-71
2021/05/25 11:23:23;;;;;;;0.20;0.20;;;14.90;99.90;;;;;;4425443;32;20331;-71
2021/05/25 11:25:49;;;;;;;0.17;0.17;;;15.00;99.90;;;;;;4416589;32;20069;-71
2021/05/25 11:28:15;;;;;;;0.47;0.47;;;15.50;99.90;;;;;;4435445;32;20088;-71
2021/05/25 11:30:42;;;;;;;0.20;0.20;;;16.00;99.90;;;;;;4441651;32;20093;-71
2021/05/25 11:33:08;;;;;;;0.30;0.30;;;16.70;99.90;;;;;;4429567;32;20089;-72
2021/05/25 11:35:34;;;;;;;0.10;0.10;;;17.50;99.90;;;;;;4428922;32;20064;-72
2021/05/25 11:38:03;;;;;;;0.30;0.30;;;17.70;97.50;;;;;;4432723;32;20069;-72
2021/05/25 11:40:32;;;;;;;0.77;0.35;;;18.00;96.10;;;;;;4430582;32;20556;-72
2021/05/25 11:42:58;;;;;;;1.02;0.20;;;18.20;94.10;;;;;;4440138;32;20069;-72
2021/05/25 11:45:26;;;;;;;0.10;0.10;;;18.30;93.50;;;;;;4443235;32;20126;-72
2021/05/25 11:47:54;;;;;;;0.28;0.28;;;18.70;93.00;;;;;;4431983;32;20057;-72
2021/05/25 11:50:20;;;;;;;0.37;0.37;;;19.40;91.70;;;;;;4437600;32;20182;-72
2021/05/25 11:52:51;;;;;;;0.30;0.30;;;19.90;86.50;;;;;;4438611;32;20093;-72
2021/05/25 11:55:20;;;;;;;0.10;0.10;;;19.60;83.70;;;;;;4436479;32;20458;-72
2021/05/25 11:57:48;;;;;;;0.10;0.10;;;19.40;81.00;;;;;;4433013;32;20120;-70
2021/05/25 12:00:24;;;;;;;0.57;0.57;;;19.10;82.10;;;;;;4433757;32;20103;-71
2021/05/25 12:02:52;;;;;;;0.30;0.30;;;19.00;84.20;;;;;;4432791;32;20180;-71
2021/05/25 12:05:20;;;;;;;0.20;0.20;;;18.30;87.70;;;;;;4439251;32;20145;-71
2021/05/25 12:07:51;;;;;;;0.20;0.20;;;17.80;89.50;;;;;;4430503;32;20085;-71
2021/05/25 12:10:22;;;;;;;0.20;0.20;;;17.50;90.80;;;;;;4433193;32;20073;-71
2021/05/25 12:12:50;;;;;;;0.20;0.20;;;18.10;91.00;;;;;;4427794;32;20136;-71
2021/05/25 12:15:19;;;;;;;0.20;0.20;;;18.80;89.80;;;;;;4436537;32;20073;-72
2021/05/25 12:17:47;;;;;;;0.20;0.20;;;19.00;83.40;;;;;;4432502;32;20084;-72
2021/05/25 12:20:17;;;;;;;0.20;0.20;;;19.60;83.80;;;;;;4429352;32;20060;-72
2021/05/25 12:22:43;;;;;;;0.20;0.20;;;20.10;79.70;;;;;;4435257;32;20641;-71
2021/05/25 12:25:29;;;;;;;0.98;0.35;;;20.50;76.20;;;;;;4430261;32;20077;-72
2021/05/25 12:28:17;;;;;;;0.20;0.20;;;20.80;73.00;;;;;;4422527;32;20085;-72
2021/05/25 12:30:47;;;;;;;0.10;0.10;;;21.10;70.20;;;;;;4422278;32;20140;-72
2021/05/25 12:33:37;;;;;;;0.37;0.37;;;21.70;69.70;;;;;;4429507;32;20085;-71
2021/05/25 12:36:29;;;;;;;0.73;0.35;;;21.30;70.50;;;;;;4427723;32;20466;-72
2021/05/25 12:39:08;;;;;;;0.10;0.10;;;21.30;71.50;;;;;;4433484;27;20105;-86
2021/05/25 12:41:47;;;;;;;4.47;0.95;;;21.70;72.10;;;;;;4428511;32;20220;-88
2021/05/25 12:44:16;;;;;;;0.65;0.50;;;22.40;69.70;;;;;;4432205;32;20074;-85
2021/05/25 12:47:04;;;;;;;0.10;0.10;;;22.60;69.50;;;;;;4420565;32;20088;-88
2021/05/25 12:49:32;;;;;;;0.20;0.20;;;21.80;71.30;;;;;;4415118;32;20057;-85
2021/05/25 12:52:21;;;;;;;0.10;0.10;;;21.80;73.40;;;;;;4404032;32;20394;-85
2021/05/25 12:55:08;;;;;;;0.20;0.20;;;21.20;70.50;;;;;;4414078;32;20132;-85
2021/05/25 12:57:54;;;;;;;0.20;0.20;;;20.00;74.50;;;;;;4409252;32;20081;-85
2021/05/25 13:00:41;;;;;;;1.48;0.32;;;19.00;76.30;;;;;;4414706;32;20058;-87